createdAt,value
2018-11-05T00:01:07.496Z,14.30
2018-11-05T00:03:42.313Z,14.30
2018-11-05T00:06:17.178Z,13.83
2018-11-05T00:08:51.958Z,14.53
2018-11-05T00:11:26.781Z,15.07
2018-11-05T00:14:01.626Z,14.83
2018-11-05T00:16:36.683Z,14.27
2018-11-05T00:19:11.397Z,14.27
2018-11-05T00:21:46.462Z,14.40
2018-11-05T00:24:21.369Z,14.23
2018-11-05T00:26:56.218Z,14.27
2018-11-05T00:29:31.234Z,14.80
2018-11-05T00:32:06.151Z,14.23
2018-11-05T00:34:40.917Z,14.40
2018-11-05T00:37:15.763Z,14.70
2018-11-05T00:39:50.583Z,14.13
2018-11-05T00:42:25.508Z,14.43
2018-11-05T00:45:00.471Z,14.53
2018-11-05T00:47:35.329Z,14.60
2018-11-05T00:50:12.145Z,14.60
2018-11-05T00:52:46.925Z,14.00
2018-11-05T00:55:21.828Z,15.33
2018-11-05T00:57:56.481Z,15.53
2018-11-05T01:00:31.345Z,15.20
2018-11-05T01:03:06.185Z,16.23
2018-11-05T01:05:41.007Z,16.03
2018-11-05T01:08:15.907Z,15.90
2018-11-05T01:10:50.751Z,16.20
2018-11-05T01:13:25.571Z,17.73
2018-11-05T01:16:00.402Z,15.73
2018-11-05T01:18:35.279Z,14.93
2018-11-05T01:21:09.960Z,15.00
2018-11-05T01:23:44.796Z,15.20
2018-11-05T01:26:19.665Z,15.17
2018-11-05T01:28:54.607Z,14.90
2018-11-05T01:31:29.520Z,15.47
2018-11-05T01:34:04.334Z,15.13
2018-11-05T01:36:39.171Z,14.83
2018-11-05T01:39:14.117Z,15.00
2018-11-05T01:41:48.822Z,14.60
2018-11-05T01:44:23.723Z,15.53
2018-11-05T01:46:58.637Z,15.37
2018-11-05T01:49:33.451Z,14.00
2018-11-05T01:52:08.898Z,15.37
2018-11-05T01:54:43.852Z,14.80
2018-11-05T01:57:18.667Z,15.43
2018-11-05T01:59:53.395Z,14.23
2018-11-05T02:02:28.277Z,15.53
2018-11-05T02:05:02.972Z,15.00
2018-11-05T02:07:37.884Z,15.27
2018-11-05T02:10:14.919Z,14.90
2018-11-05T02:12:49.703Z,15.00
2018-11-05T02:15:24.560Z,15.73
2018-11-05T02:17:59.299Z,15.13
2018-11-05T02:20:34.244Z,16.27
2018-11-05T02:23:08.949Z,15.00
2018-11-05T02:25:43.777Z,15.93
2018-11-05T02:28:18.620Z,16.27
2018-11-05T02:30:53.463Z,16.83
2018-11-05T02:33:28.394Z,16.43
2018-11-05T02:36:03.205Z,16.00
2018-11-05T02:38:37.946Z,16.53
2018-11-05T02:41:12.880Z,16.23
2018-11-05T02:43:47.591Z,16.17
2018-11-05T02:46:22.475Z,16.07
2018-11-05T02:48:57.359Z,16.43
2018-11-05T02:51:32.205Z,16.40
2018-11-05T02:54:06.962Z,17.17
2018-11-05T02:56:41.774Z,14.57
2018-11-05T02:59:16.536Z,15.83
2018-11-05T03:01:51.410Z,15.57
2018-11-05T03:04:26.225Z,16.07
2018-11-05T03:07:01.172Z,16.53
2018-11-05T03:09:35.865Z,17.33
2018-11-05T03:12:10.713Z,16.10
2018-11-05T03:14:45.657Z,16.70
2018-11-05T03:17:20.416Z,16.97
2018-11-05T03:19:55.316Z,16.43
2018-11-05T03:22:30.143Z,17.10
2018-11-05T03:25:05.234Z,15.80
2018-11-05T03:27:40.619Z,16.53
2018-11-05T03:30:17.611Z,16.90
2018-11-05T03:32:52.438Z,16.47
2018-11-05T03:35:27.326Z,15.80
2018-11-05T03:38:02.346Z,14.37
2018-11-05T03:40:37.086Z,15.70
2018-11-05T03:43:11.969Z,14.97
2018-11-05T03:45:46.759Z,15.43
2018-11-05T03:48:21.565Z,17.47
2018-11-05T03:50:56.401Z,15.50
2018-11-05T03:53:31.347Z,16.93
2018-11-05T03:56:06.941Z,15.80
2018-11-05T03:58:41.653Z,16.10
2018-11-05T04:01:16.469Z,14.37
2018-11-05T04:03:51.351Z,15.87
2018-11-05T04:06:26.202Z,16.07
2018-11-05T04:09:01.185Z,15.60
2018-11-05T04:11:35.917Z,16.27
2018-11-05T04:14:10.757Z,16.17
2018-11-05T04:16:45.586Z,16.07
2018-11-05T04:19:20.399Z,16.60
2018-11-05T04:21:55.137Z,16.17
2018-11-05T04:24:29.961Z,16.03
2018-11-05T04:27:05.593Z,15.87
2018-11-05T04:29:40.261Z,16.67
2018-11-05T04:32:15.279Z,15.80
2018-11-05T04:34:50.343Z,15.80
2018-11-05T04:37:25.141Z,16.03
2018-11-05T04:40:00.080Z,15.83
2018-11-05T04:42:34.835Z,15.80
2018-11-05T04:45:11.146Z,15.43
2018-11-05T04:47:45.984Z,15.77
2018-11-05T04:50:20.757Z,16.57
2018-11-05T04:52:55.525Z,15.33
2018-11-05T04:55:30.297Z,16.50
2018-11-05T04:58:05.236Z,16.60
2018-11-05T05:00:40.004Z,17.17
2018-11-05T05:03:14.715Z,16.47
2018-11-05T05:05:49.558Z,16.93
2018-11-05T05:08:24.360Z,17.00
2018-11-05T05:10:59.092Z,17.40
2018-11-05T05:13:33.842Z,17.60
2018-11-05T05:16:08.716Z,17.03
2018-11-05T05:18:43.529Z,18.60
2018-11-05T05:21:18.439Z,17.37
2018-11-05T05:23:53.267Z,17.53
2018-11-05T05:26:28.293Z,17.50
2018-11-05T05:29:03.037Z,17.40
2018-11-05T05:31:37.878Z,18.60
2018-11-05T05:34:12.607Z,17.97
2018-11-05T05:36:47.637Z,18.70
2018-11-05T05:39:22.560Z,17.30
2018-11-05T05:41:57.594Z,17.87
2018-11-05T05:44:32.516Z,17.67
2018-11-05T05:47:07.282Z,17.13
2018-11-05T05:49:42.022Z,16.97
2018-11-05T05:52:16.933Z,16.57
2018-11-05T05:54:51.783Z,16.03
2018-11-05T05:57:26.743Z,18.27
2018-11-05T06:00:01.660Z,16.87
2018-11-05T06:02:36.815Z,16.27
2018-11-05T06:05:12.852Z,16.93
2018-11-05T06:07:47.488Z,17.57
2018-11-05T06:10:22.186Z,17.90
2018-11-05T06:12:56.861Z,18.47
2018-11-05T06:15:31.760Z,18.43
2018-11-05T06:18:06.539Z,18.50
2018-11-05T06:20:41.433Z,19.00
2018-11-05T06:23:16.190Z,18.07
2018-11-05T06:25:50.973Z,19.00
2018-11-05T06:28:26.022Z,18.50
2018-11-05T06:31:00.764Z,18.37
2018-11-05T06:33:35.704Z,19.27
2018-11-05T06:36:10.565Z,18.07
2018-11-05T06:38:45.498Z,18.67
2018-11-05T06:41:20.259Z,17.53
2018-11-05T06:43:54.976Z,18.87
2018-11-05T06:46:29.943Z,18.57
2018-11-05T06:49:05.145Z,18.50
2018-11-05T06:51:39.631Z,16.23
2018-11-05T06:54:15.065Z,17.80
2018-11-05T06:56:50.154Z,17.90
2018-11-05T06:59:25.029Z,17.27
2018-11-05T07:01:59.648Z,16.27
2018-11-05T07:04:34.470Z,16.70
2018-11-05T07:07:09.268Z,15.20
2018-11-05T07:09:44.065Z,15.40
2018-11-05T07:12:18.876Z,15.93
2018-11-05T07:14:53.804Z,15.93
2018-11-05T07:17:28.531Z,16.00
2018-11-05T07:20:03.469Z,15.77
2018-11-05T07:22:38.265Z,15.40
2018-11-05T07:25:14.068Z,15.33
2018-11-05T07:27:49.072Z,15.17
2018-11-05T07:30:24.913Z,14.73
2018-11-05T07:32:59.603Z,16.40
2018-11-05T07:35:34.331Z,15.43
2018-11-05T07:38:09.160Z,16.07
2018-11-05T07:40:44.518Z,16.13
2018-11-05T07:43:19.342Z,15.63
2018-11-05T07:45:54.266Z,16.80
2018-11-05T07:48:29.114Z,16.50
2018-11-05T07:51:04.000Z,17.20
2018-11-05T07:53:38.721Z,15.40
2018-11-05T07:56:13.926Z,16.63
2018-11-05T07:58:48.787Z,17.20
2018-11-05T08:01:23.443Z,16.63
2018-11-05T08:03:58.333Z,16.87
2018-11-05T08:06:33.048Z,18.07
2018-11-05T08:09:10.420Z,16.57
2018-11-05T08:11:45.268Z,16.13
2018-11-05T08:14:20.108Z,17.97
2018-11-05T08:16:54.748Z,16.77
2018-11-05T08:19:29.376Z,17.17
2018-11-05T08:22:04.279Z,17.37
2018-11-05T08:24:38.968Z,16.77
2018-11-05T08:27:13.669Z,15.97
2018-11-05T08:29:48.354Z,16.50
2018-11-05T08:32:23.327Z,15.67
2018-11-05T08:34:58.153Z,14.97
2018-11-05T08:37:32.851Z,16.33
2018-11-05T08:40:10.715Z,16.30
2018-11-05T08:42:46.283Z,16.27
2018-11-05T08:45:22.535Z,15.67
2018-11-05T08:47:57.210Z,15.57
2018-11-05T08:50:32.070Z,15.87
2018-11-05T08:53:06.840Z,19.47
2018-11-05T08:55:41.615Z,19.70
2018-11-05T08:58:16.770Z,20.97
2018-11-05T09:01:00.723Z,18.87
2018-11-05T09:03:35.600Z,20.70
2018-11-05T09:06:10.500Z,19.73
2018-11-05T09:08:45.600Z,18.27
2018-11-05T09:11:20.796Z,21.40
2018-11-05T09:13:55.151Z,21.90
2018-11-05T09:16:29.919Z,22.63
2018-11-05T09:19:05.016Z,22.20
2018-11-05T09:21:39.847Z,22.73
2018-11-05T09:24:14.894Z,22.57
2018-11-05T09:26:49.636Z,22.03
2018-11-05T09:29:24.588Z,21.47
2018-11-05T09:31:59.522Z,21.63
2018-11-05T09:34:34.409Z,21.93
2018-11-05T09:37:15.839Z,22.17
2018-11-05T09:39:50.399Z,21.07
2018-11-05T09:42:25.208Z,21.37
2018-11-05T09:44:59.954Z,20.20
2018-11-05T09:47:34.692Z,20.60
2018-11-05T09:50:10.166Z,20.67
2018-11-05T09:52:44.942Z,21.20
2018-11-05T09:55:19.917Z,20.37
2018-11-05T09:57:54.650Z,21.10
2018-11-05T10:00:29.387Z,20.53
2018-11-05T10:03:19.948Z,20.33
2018-11-05T10:05:54.584Z,19.60
2018-11-05T10:08:29.322Z,20.20
2018-11-05T10:11:04.247Z,20.77
2018-11-05T10:13:39.046Z,19.97
2018-11-05T10:16:13.836Z,20.00
2018-11-05T10:18:48.604Z,20.50
2018-11-05T10:21:23.445Z,21.93
2018-11-05T10:23:58.374Z,20.67
2018-11-05T10:26:32.999Z,20.40
2018-11-05T10:29:08.643Z,21.00
2018-11-05T10:31:43.487Z,19.60
2018-11-05T10:34:18.313Z,20.53
2018-11-05T10:36:53.040Z,19.63
2018-11-05T10:39:28.086Z,19.47
2018-11-05T10:42:09.620Z,20.03
2018-11-05T10:44:44.406Z,20.10
2018-11-05T10:47:19.176Z,20.43
2018-11-05T10:49:53.954Z,20.23
2018-11-05T10:52:28.700Z,19.77
2018-11-05T10:55:03.361Z,18.57
2018-11-05T10:57:38.515Z,20.63
2018-11-05T11:00:19.983Z,20.03
2018-11-05T11:02:59.876Z,20.60
2018-11-05T11:05:34.719Z,21.23
2018-11-05T11:08:09.579Z,20.03
2018-11-05T11:10:45.659Z,20.73
2018-11-05T11:13:20.586Z,20.13
2018-11-05T11:15:55.306Z,20.73
2018-11-05T11:18:30.000Z,20.93
2018-11-05T11:21:05.344Z,19.03
2018-11-05T11:23:40.208Z,19.23
2018-11-05T11:26:14.992Z,20.73
2018-11-05T11:28:49.944Z,20.57
2018-11-05T11:31:24.619Z,21.50
2018-11-05T11:33:59.505Z,21.80
2018-11-05T11:36:34.456Z,20.90
2018-11-05T11:39:10.977Z,21.57
2018-11-05T11:41:45.830Z,21.37
2018-11-05T11:44:20.675Z,19.93
2018-11-05T11:46:55.330Z,21.57
2018-11-05T11:49:30.045Z,20.60
2018-11-05T11:52:05.345Z,21.10
2018-11-05T11:54:39.966Z,20.47
2018-11-05T11:57:14.685Z,20.77
2018-11-05T11:59:49.545Z,19.43
2018-11-05T12:02:24.435Z,20.43
2018-11-05T12:04:59.318Z,20.97
2018-11-05T12:07:34.145Z,20.97
2018-11-05T12:10:11.180Z,20.90
2018-11-05T12:12:46.147Z,20.47
2018-11-05T12:15:21.710Z,19.33
2018-11-05T12:17:56.561Z,20.40
2018-11-05T12:20:31.470Z,20.70
2018-11-05T12:23:06.458Z,19.80
2018-11-05T12:25:41.283Z,19.67
2018-11-05T12:28:16.201Z,19.23
2018-11-05T12:30:50.927Z,18.23
2018-11-05T12:33:25.686Z,17.93
2018-11-05T12:36:00.364Z,18.53
2018-11-05T12:38:35.244Z,18.83
2018-11-05T12:41:10.039Z,19.20
2018-11-05T12:43:44.711Z,20.33
2018-11-05T12:46:19.424Z,19.30
2018-11-05T12:48:54.047Z,19.13
2018-11-05T12:51:28.802Z,20.07
2018-11-05T12:54:03.709Z,20.17
2018-11-05T12:56:38.458Z,19.23
2018-11-05T12:59:13.261Z,19.07
2018-11-05T13:01:48.049Z,19.97
2018-11-05T13:04:22.989Z,20.93
2018-11-05T13:06:57.538Z,22.27
2018-11-05T13:09:32.432Z,21.13
2018-11-05T13:12:07.311Z,21.90
2018-11-05T13:14:41.947Z,22.53
2018-11-05T13:17:16.790Z,21.73
2018-11-05T13:19:51.680Z,22.83
2018-11-05T13:22:26.598Z,22.97
2018-11-05T13:25:01.126Z,21.90
2018-11-05T13:27:35.901Z,22.90
2018-11-05T13:30:11.753Z,21.53
2018-11-05T13:32:46.877Z,22.50
2018-11-05T13:35:22.131Z,23.10
2018-11-05T13:37:57.378Z,21.87
2018-11-05T13:40:31.883Z,22.77
2018-11-05T13:43:06.842Z,23.20
2018-11-05T13:45:41.765Z,23.13
2018-11-05T13:48:16.749Z,22.43
2018-11-05T13:50:51.145Z,23.37
2018-11-05T13:53:25.951Z,22.97
2018-11-05T13:56:00.790Z,21.93
2018-11-05T13:58:35.860Z,22.77
2018-11-05T14:01:10.753Z,23.23
2018-11-05T14:03:45.594Z,22.60
2018-11-05T14:06:20.268Z,20.70
2018-11-05T14:08:55.063Z,22.40
2018-11-05T14:11:30.154Z,21.53
2018-11-05T14:14:05.146Z,23.33
2018-11-05T14:16:39.825Z,23.77
2018-11-05T14:19:14.814Z,22.93
2018-11-05T14:21:49.624Z,21.70
2018-11-05T14:24:24.481Z,20.63
2018-11-05T14:26:59.166Z,22.73
2018-11-05T14:29:34.602Z,21.07
2018-11-05T14:32:08.748Z,22.90
2018-11-05T14:34:43.510Z,22.23
2018-11-05T14:37:18.440Z,21.20
2018-11-05T14:39:53.166Z,22.33
2018-11-05T14:42:27.902Z,21.77
2018-11-05T14:45:02.675Z,21.50
2018-11-05T14:47:37.626Z,21.70
2018-11-05T14:50:13.965Z,20.77
2018-11-05T14:52:48.802Z,21.00
2018-11-05T14:55:23.730Z,20.60
2018-11-05T14:57:58.472Z,19.60
2018-11-05T15:00:33.373Z,20.50
2018-11-05T15:03:08.268Z,20.83
2018-11-05T15:05:42.930Z,20.67
2018-11-05T15:08:17.781Z,20.17
2018-11-05T15:10:52.611Z,19.47
2018-11-05T15:13:27.466Z,20.03
2018-11-05T15:16:02.174Z,20.23
2018-11-05T15:18:37.264Z,18.47
2018-11-05T15:21:12.144Z,19.13
2018-11-05T15:23:46.871Z,19.80
2018-11-05T15:26:21.554Z,18.77
2018-11-05T15:28:56.181Z,19.07
2018-11-05T15:31:31.019Z,19.77
2018-11-05T15:34:06.016Z,19.63
2018-11-05T15:36:40.841Z,20.20
2018-11-05T15:41:56.467Z,19.87
2018-11-05T15:44:31.175Z,19.00
2018-11-05T15:47:06.047Z,19.67
2018-11-05T15:49:40.831Z,18.37
2018-11-05T15:52:16.719Z,18.73
2018-11-05T15:54:51.312Z,19.67
2018-11-05T15:57:26.281Z,19.00
2018-11-05T16:00:01.278Z,19.13
2018-11-05T16:02:35.953Z,18.93
2018-11-05T16:05:10.759Z,18.13
2018-11-05T16:07:45.955Z,19.83
2018-11-05T16:10:20.814Z,18.97
2018-11-05T16:12:55.557Z,19.93
2018-11-05T16:15:30.335Z,19.97
2018-11-05T16:18:05.283Z,19.73
2018-11-05T16:20:40.075Z,18.87
2018-11-05T16:23:15.306Z,19.70
2018-11-05T16:25:50.183Z,20.53
2018-11-05T16:28:25.027Z,20.73
2018-11-05T16:30:59.710Z,19.13
2018-11-05T16:33:34.539Z,20.00
2018-11-05T16:36:09.386Z,21.33
2018-11-05T16:38:44.228Z,21.23
2018-11-05T16:41:19.031Z,21.50
2018-11-05T16:43:53.884Z,21.37
2018-11-05T16:46:28.526Z,22.03
2018-11-05T16:49:03.443Z,21.60
2018-11-05T16:51:38.107Z,21.90
2018-11-05T16:54:12.818Z,17.70
2018-11-05T16:56:47.742Z,18.03
2018-11-05T16:59:22.679Z,16.77
2018-11-05T17:01:58.253Z,15.70
2018-11-05T17:04:32.659Z,15.07
2018-11-05T17:07:07.593Z,14.70
2018-11-05T17:09:42.419Z,13.93
2018-11-05T17:12:17.469Z,13.73
2018-11-05T17:14:52.203Z,14.53
2018-11-05T17:17:28.054Z,15.33
2018-11-05T17:20:02.866Z,17.00
2018-11-05T17:22:37.799Z,15.27
2018-11-05T17:25:13.142Z,15.27
2018-11-05T17:27:48.582Z,13.63
2018-11-05T17:30:23.561Z,14.90
2018-11-05T17:32:58.469Z,14.73
2018-11-05T17:35:33.243Z,15.17
2018-11-05T17:38:08.088Z,14.30
2018-11-05T17:40:42.975Z,13.50
2018-11-05T17:43:17.765Z,15.33
2018-11-05T17:45:52.462Z,15.03
2018-11-05T17:48:27.385Z,13.27
2018-11-05T17:51:02.241Z,16.77
2018-11-05T17:53:37.101Z,14.67
2018-11-05T17:56:12.081Z,14.93
2018-11-05T17:58:46.708Z,14.50
2018-11-05T18:01:21.487Z,15.73
2018-11-05T18:03:56.249Z,14.00
2018-11-05T18:06:31.716Z,16.47
2018-11-05T18:09:08.608Z,14.70
2018-11-05T18:11:43.421Z,14.87
2018-11-05T18:14:18.268Z,14.50
2018-11-05T18:16:53.109Z,14.30
2018-11-05T18:19:27.853Z,14.17
2018-11-05T18:22:02.755Z,14.70
2018-11-05T18:24:37.638Z,15.17
2018-11-05T18:27:12.451Z,15.30
2018-11-05T18:29:47.273Z,13.93
2018-11-05T18:32:22.426Z,15.00
2018-11-05T18:34:57.061Z,13.20
2018-11-05T18:37:31.937Z,14.00
2018-11-05T18:40:09.002Z,13.77
2018-11-05T18:42:44.551Z,14.83
2018-11-05T18:45:19.591Z,16.37
2018-11-05T18:47:54.431Z,15.70
2018-11-05T18:50:29.902Z,14.63
2018-11-05T18:53:05.221Z,16.23
2018-11-05T18:55:40.058Z,14.43
2018-11-05T18:58:14.894Z,14.27
2018-11-05T19:00:49.747Z,14.67
2018-11-05T19:03:24.661Z,15.97
2018-11-05T19:05:59.437Z,14.60
2018-11-05T19:08:34.145Z,14.37
2018-11-05T19:11:09.535Z,14.43
2018-11-05T19:13:44.545Z,14.77
2018-11-05T19:16:19.308Z,15.47
2018-11-05T19:18:54.137Z,14.93
2018-11-05T19:21:29.342Z,14.67
2018-11-05T19:24:04.264Z,14.67
2018-11-05T19:26:39.048Z,14.67
2018-11-05T19:29:13.995Z,14.30
2018-11-05T19:31:48.817Z,14.67
2018-11-05T19:34:24.293Z,14.70
2018-11-05T19:36:58.957Z,15.50
2018-11-05T19:39:33.961Z,14.70
2018-11-05T19:42:09.066Z,14.20
2018-11-05T19:44:44.358Z,14.17
2018-11-05T19:47:19.475Z,13.80
2018-11-05T19:49:54.740Z,13.43
2018-11-05T19:52:30.568Z,13.27
2018-11-05T19:55:07.797Z,14.00
2018-11-05T19:57:44.138Z,13.03
2018-11-05T20:00:25.267Z,14.13
2018-11-05T20:03:01.501Z,13.33
2018-11-05T20:05:36.336Z,13.57
2018-11-05T20:08:12.208Z,13.80
2018-11-05T20:10:47.178Z,13.80
2018-11-05T20:13:23.601Z,13.57
2018-11-05T20:15:58.504Z,13.60
2018-11-05T20:18:33.900Z,12.57
2018-11-05T20:21:09.554Z,12.87
2018-11-05T20:24:00.500Z,12.60
2018-11-05T20:26:35.560Z,13.70
2018-11-05T20:29:10.399Z,13.30
2018-11-05T20:31:45.510Z,12.17
2018-11-05T20:34:20.302Z,14.83
2018-11-05T20:36:54.864Z,13.40
2018-11-05T20:39:29.709Z,15.20
2018-11-05T20:42:04.562Z,13.60
2018-11-05T20:44:39.756Z,13.20
2018-11-05T20:47:14.492Z,13.13
2018-11-05T20:49:49.134Z,14.67
2018-11-05T20:52:24.013Z,13.43
2018-11-05T20:54:58.814Z,14.53
2018-11-05T20:57:33.686Z,13.63
2018-11-05T21:00:10.116Z,13.43
2018-11-05T21:02:44.983Z,13.73
2018-11-05T21:05:20.086Z,13.20
2018-11-05T21:07:54.868Z,12.53
2018-11-05T21:10:30.291Z,13.60
2018-11-05T21:13:05.653Z,13.60
2018-11-05T21:15:40.596Z,13.83
2018-11-05T21:18:15.761Z,13.40
2018-11-05T21:20:51.415Z,13.33
2018-11-05T21:23:26.256Z,13.57
2018-11-05T21:26:01.175Z,13.33
2018-11-05T21:28:36.017Z,14.10
2018-11-05T21:31:12.039Z,13.67
2018-11-05T21:33:48.350Z,13.40
2018-11-05T21:36:23.029Z,13.17
2018-11-05T21:38:57.908Z,14.33
2018-11-05T21:41:32.680Z,13.37
2018-11-05T21:44:08.074Z,12.67
2018-11-05T21:46:42.888Z,13.37
2018-11-05T21:49:18.595Z,13.20
2018-11-05T21:51:53.354Z,12.73
2018-11-05T21:54:28.258Z,12.87
2018-11-05T21:57:02.961Z,12.87
2018-11-05T21:59:37.854Z,13.37
2018-11-05T22:02:12.475Z,13.60
2018-11-05T22:04:47.432Z,13.30
2018-11-05T22:07:22.353Z,13.13
2018-11-05T22:09:57.354Z,13.43
2018-11-05T22:12:36.087Z,12.30
2018-11-05T22:15:10.848Z,11.87
2018-11-05T22:17:45.815Z,11.90
2018-11-05T22:20:20.576Z,11.93
2018-11-05T22:22:55.403Z,12.00
2018-11-05T22:25:30.173Z,11.87
2018-11-05T22:28:05.285Z,12.80
2018-11-05T22:30:39.960Z,12.77
2018-11-05T22:33:14.739Z,11.70
2018-11-05T22:35:49.515Z,12.20
2018-11-05T22:38:24.194Z,12.33
2018-11-05T22:40:59.062Z,12.70
2018-11-05T22:43:33.970Z,12.57
2018-11-05T22:46:08.804Z,12.47
2018-11-05T22:48:43.572Z,12.27
2018-11-05T22:51:18.900Z,11.80
2018-11-05T22:53:53.884Z,12.03
2018-11-05T22:56:28.766Z,12.13
2018-11-05T22:59:03.507Z,11.40
2018-11-05T23:01:44.212Z,10.30
2018-11-05T23:04:25.581Z,10.03
2018-11-05T23:07:00.272Z,10.07
2018-11-05T23:09:35.073Z,9.53
2018-11-05T23:12:09.980Z,9.03
2018-11-05T23:14:44.748Z,10.07
2018-11-05T23:17:19.535Z,11.73
2018-11-05T23:19:54.454Z,9.87
2018-11-05T23:22:29.332Z,10.43
2018-11-05T23:25:04.448Z,11.57
2018-11-05T23:27:38.993Z,10.30
2018-11-05T23:30:14.096Z,9.20
2018-11-05T23:32:48.931Z,8.20
2018-11-05T23:35:23.570Z,7.90
2018-11-05T23:37:58.637Z,10.20
2018-11-05T23:40:33.408Z,8.73
2018-11-05T23:43:08.268Z,9.43
2018-11-05T23:45:43.198Z,9.63
2018-11-05T23:48:18.050Z,8.97
2018-11-05T23:50:53.525Z,10.00
2018-11-05T23:53:28.199Z,10.67
2018-11-05T23:56:03.148Z,10.00
2018-11-05T23:58:38.027Z,8.00
